createdAt,value
2022-12-04T00:17:19.562Z,0.7
2022-12-04T00:27:21.274Z,0.7
2022-12-04T00:37:23.075Z,0.7
2022-12-04T00:47:25.052Z,0.7
2022-12-04T00:57:27.224Z,0.7
2022-12-04T01:07:28.964Z,0.7
2022-12-04T01:27:32.604Z,0.8
2022-12-04T01:47:36.609Z,0.7
2022-12-04T01:57:38.600Z,0.7
2022-12-04T02:07:40.453Z,0.7
2022-12-04T02:17:42.629Z,0.8
2022-12-04T02:47:49.514Z,0.8
2022-12-04T03:27:57.445Z,0.8
2022-12-04T04:18:08.508Z,0.8
2022-12-04T04:38:12.615Z,0.9
2022-12-04T05:18:21.236Z,0.9
2022-12-04T05:28:23.644Z,0.8
2022-12-04T06:58:43.048Z,1
2022-12-04T07:08:45.672Z,1.1
2022-12-04T07:18:47.856Z,1.1
2022-12-04T07:28:49.671Z,1.1
2022-12-04T07:38:51.519Z,1.1
2022-12-04T07:58:55.460Z,1.2
2022-12-04T08:08:57.378Z,1.3
2022-12-04T08:18:59.142Z,1.3
2022-12-04T08:29:00.852Z,1.3
2022-12-04T08:49:05.637Z,1.4
2022-12-04T08:59:08.024Z,1.4
2022-12-04T09:09:10.173Z,1.5
2022-12-04T09:19:12.084Z,1.6
2022-12-04T09:29:14.465Z,1.6
2022-12-04T09:39:16.596Z,1.7
2022-12-04T09:49:19.229Z,1.8
2022-12-04T09:59:21.779Z,1.9
2022-12-04T10:09:24.125Z,2
2022-12-04T10:19:26.414Z,2
2022-12-04T10:29:28.227Z,2
2022-12-04T10:39:30.430Z,2
2022-12-04T10:59:34.445Z,2
2022-12-04T11:09:36.624Z,2
2022-12-04T11:19:38.895Z,2.1
2022-12-04T11:39:42.922Z,2.2
2022-12-04T11:49:44.846Z,2.2
2022-12-04T11:59:46.911Z,2.3
2022-12-04T12:09:48.651Z,2.3
2022-12-04T12:19:50.677Z,2.4
2022-12-04T12:29:52.846Z,2.4
2022-12-04T12:39:54.851Z,2.5
2022-12-04T12:59:59.615Z,2.5
2022-12-04T13:10:01.477Z,2.5
2022-12-04T13:20:08.404Z,2.5
2022-12-04T13:30:05.744Z,2.5
2022-12-04T13:40:08.244Z,2.6
2022-12-04T13:50:10.624Z,2.6
2022-12-04T14:00:12.891Z,2.6
2022-12-04T14:10:15.171Z,2.6
2022-12-04T14:20:16.893Z,2.6
2022-12-04T14:30:18.765Z,2.5
2022-12-04T14:40:20.553Z,2.4
2022-12-04T14:50:22.360Z,2.4
2022-12-04T15:00:24.055Z,2.4
2022-12-04T15:10:26.168Z,2.4
2022-12-04T15:20:28.216Z,2.4
2022-12-04T15:30:30.028Z,2.4
2022-12-04T15:40:32.198Z,2.4
2022-12-04T15:50:41.294Z,2.3
2022-12-04T16:00:43.637Z,2.3
2022-12-04T16:10:45.843Z,2.3
2022-12-04T16:20:47.621Z,2.3
2022-12-04T16:30:49.764Z,2.3
2022-12-04T16:40:51.722Z,2.3
2022-12-04T16:50:53.647Z,2.2
2022-12-04T17:00:55.548Z,2
2022-12-04T17:10:58.094Z,1.9
2022-12-04T17:21:00.348Z,1.9
2022-12-04T17:31:02.063Z,1.8
2022-12-04T17:41:04.232Z,1.8
2022-12-04T17:51:06.146Z,1.8
2022-12-04T18:01:08.695Z,1.9
2022-12-04T18:21:13.176Z,1.8
2022-12-04T18:31:15.347Z,1.8
2022-12-04T18:41:17.913Z,1.8
2022-12-04T18:51:19.543Z,1.7
2022-12-04T19:01:21.556Z,1.8
2022-12-04T19:11:23.328Z,1.8
2022-12-04T19:21:25.612Z,1.8
2022-12-04T19:31:27.912Z,1.8
2022-12-04T19:41:29.766Z,1.9
2022-12-04T19:51:31.872Z,1.9
2022-12-04T20:01:33.809Z,1.9
2022-12-04T20:11:35.588Z,1.9
2022-12-04T20:21:37.840Z,2
2022-12-04T20:31:40.358Z,2
2022-12-04T20:41:42.986Z,2
2022-12-04T20:51:45.024Z,2
2022-12-04T21:01:47.208Z,2
2022-12-04T21:11:49.334Z,2
2022-12-04T21:21:51.453Z,2
2022-12-04T21:31:53.643Z,2
2022-12-04T21:41:55.360Z,2.1
2022-12-04T21:51:58.336Z,2.1
2022-12-04T22:02:00.036Z,2.1
2022-12-04T22:12:06.885Z,2.1
2022-12-04T22:32:07.421Z,2.2
2022-12-04T22:42:09.149Z,2.2
2022-12-04T22:52:10.989Z,2.3
2022-12-04T23:02:13.502Z,2.3
2022-12-04T23:12:15.317Z,2.3
2022-12-04T23:22:17.422Z,2.3
2022-12-04T23:42:21.968Z,2.4
